createdAt,value
2022-07-27T00:00:24.709Z,19.40
2022-07-27T00:02:57.140Z,19.40
2022-07-27T00:05:29.041Z,19.40
2022-07-27T00:08:01.024Z,19.40
2022-07-27T00:10:34.426Z,19.30
2022-07-27T00:13:07.361Z,19.30
2022-07-27T00:15:39.331Z,19.30
2022-07-27T00:18:11.448Z,19.40
2022-07-27T00:20:43.586Z,19.40
2022-07-27T00:23:15.591Z,19.30
2022-07-27T00:25:47.600Z,19.30
2022-07-27T00:28:19.949Z,19.30
2022-07-27T00:30:51.947Z,19.30
2022-07-27T00:33:23.902Z,19.30
2022-07-27T00:35:56.075Z,19.30
2022-07-27T00:38:28.244Z,19.40
2022-07-27T00:41:00.346Z,19.40
2022-07-27T00:43:32.498Z,19.40
2022-07-27T00:46:24.803Z,19.40
2022-07-27T00:49:09.535Z,19.40
2022-07-27T00:51:41.914Z,19.40
2022-07-27T00:54:14.726Z,19.40
2022-07-27T00:56:47.606Z,19.40
2022-07-27T00:59:20.957Z,19.40
2022-07-27T01:01:53.466Z,19.40
2022-07-27T01:04:27.338Z,19.30
2022-07-27T01:07:00.220Z,19.30
2022-07-27T01:09:53.311Z,19.30
2022-07-27T01:12:47.659Z,19.30
2022-07-27T01:15:20.108Z,19.30
2022-07-27T01:17:52.125Z,19.30
2022-07-27T01:20:24.213Z,19.30
2022-07-27T01:22:56.322Z,19.30
2022-07-27T01:25:28.348Z,19.30
2022-07-27T01:28:00.417Z,19.30
2022-07-27T01:30:32.537Z,19.30
2022-07-27T01:33:08.457Z,19.20
2022-07-27T01:35:41.122Z,19.20
2022-07-27T01:38:13.315Z,19.10
2022-07-27T01:40:45.264Z,19.10
2022-07-27T01:43:17.223Z,19.00
2022-07-27T01:45:49.518Z,19.00
2022-07-27T01:48:22.079Z,19.00
2022-07-27T01:50:55.039Z,19.00
2022-07-27T01:53:27.029Z,18.90
2022-07-27T01:56:02.247Z,18.90
2022-07-27T01:58:34.367Z,18.80
2022-07-27T02:01:08.078Z,18.80
2022-07-27T02:03:40.925Z,18.80
2022-07-27T02:06:13.007Z,18.70
2022-07-27T02:08:44.996Z,18.70
2022-07-27T02:11:35.771Z,18.70
2022-07-27T02:14:27.488Z,18.70
2022-07-27T02:17:00.060Z,18.60
2022-07-27T02:19:32.304Z,18.60
2022-07-27T02:22:04.264Z,18.50
2022-07-27T02:24:37.849Z,18.50
2022-07-27T02:27:10.020Z,18.50
2022-07-27T02:29:41.993Z,18.40
2022-07-27T02:32:13.965Z,18.40
2022-07-27T02:34:46.302Z,18.30
2022-07-27T02:37:18.409Z,18.30
2022-07-27T02:39:50.413Z,18.30
2022-07-27T02:42:23.816Z,18.20
2022-07-27T02:44:55.734Z,18.20
2022-07-27T02:47:27.721Z,18.20
2022-07-27T02:50:00.821Z,18.10
2022-07-27T02:52:33.974Z,18.10
2022-07-27T02:55:07.549Z,18.00
2022-07-27T02:57:41.179Z,18.00
2022-07-27T03:00:15.820Z,17.90
2022-07-27T03:02:50.982Z,17.90
2022-07-27T03:05:23.043Z,17.90
2022-07-27T03:07:58.211Z,17.90
2022-07-27T03:10:30.198Z,17.90
2022-07-27T03:13:02.856Z,17.80
2022-07-27T03:15:35.162Z,17.80
2022-07-27T03:18:07.130Z,17.70
2022-07-27T03:20:39.072Z,17.70
2022-07-27T03:23:10.981Z,17.70
2022-07-27T03:25:43.110Z,17.60
2022-07-27T03:28:15.056Z,17.60
2022-07-27T03:30:48.103Z,17.60
2022-07-27T03:33:20.221Z,17.50
2022-07-27T03:35:52.155Z,17.50
2022-07-27T03:38:24.112Z,17.50
2022-07-27T03:40:56.048Z,17.50
2022-07-27T03:43:28.010Z,17.50
2022-07-27T03:45:59.965Z,17.50
2022-07-27T03:48:32.167Z,17.40
2022-07-27T03:51:04.140Z,17.40
2022-07-27T03:53:36.533Z,17.40
2022-07-27T03:56:08.494Z,17.40
2022-07-27T03:58:40.464Z,17.40
2022-07-27T04:01:12.610Z,17.40
2022-07-27T04:03:44.683Z,17.30
2022-07-27T04:06:16.730Z,17.30
2022-07-27T04:08:50.761Z,17.30
2022-07-27T04:11:25.979Z,17.30
2022-07-27T04:14:01.760Z,17.30
2022-07-27T04:16:36.170Z,17.30
2022-07-27T04:19:08.802Z,17.30
2022-07-27T04:21:41.041Z,17.30
2022-07-27T04:24:12.973Z,17.30
2022-07-27T04:26:45.078Z,17.30
2022-07-27T04:29:20.969Z,17.30
2022-07-27T04:31:53.732Z,17.30
2022-07-27T04:34:25.981Z,17.40
2022-07-27T04:36:58.033Z,17.40
2022-07-27T04:39:30.152Z,17.40
2022-07-27T04:42:02.391Z,17.50
2022-07-27T04:44:34.994Z,17.50
2022-07-27T04:47:07.441Z,17.50
2022-07-27T04:49:39.823Z,17.60
2022-07-27T04:52:15.256Z,17.60
2022-07-27T04:54:52.391Z,17.70
2022-07-27T04:57:25.195Z,17.70
2022-07-27T05:00:04.923Z,17.80
2022-07-27T05:02:41.518Z,17.80
2022-07-27T05:05:13.543Z,17.90
2022-07-27T05:07:45.818Z,17.90
2022-07-27T05:10:20.459Z,17.90
2022-07-27T05:12:53.121Z,18.00
2022-07-27T05:15:25.214Z,18.00
2022-07-27T05:17:57.280Z,18.00
2022-07-27T05:20:29.499Z,18.10
2022-07-27T05:23:02.934Z,18.20
2022-07-27T05:25:34.983Z,18.20
2022-07-27T05:28:07.099Z,18.20
2022-07-27T05:30:39.071Z,18.20
2022-07-27T05:33:11.839Z,18.30
2022-07-27T05:35:43.800Z,18.30
2022-07-27T05:38:15.813Z,18.30
2022-07-27T05:40:48.006Z,18.40
2022-07-27T05:43:20.124Z,18.40
2022-07-27T05:45:52.158Z,18.50
2022-07-27T05:48:25.027Z,18.50
2022-07-27T05:50:57.328Z,18.50
2022-07-27T05:53:29.493Z,18.70
2022-07-27T05:56:01.594Z,18.70
2022-07-27T05:58:33.857Z,18.70
2022-07-27T06:01:05.979Z,18.80
2022-07-27T06:03:38.490Z,18.90
2022-07-27T06:06:29.300Z,18.90
2022-07-27T06:09:21.778Z,19.00
2022-07-27T06:11:53.810Z,19.10
2022-07-27T06:14:25.750Z,19.20
2022-07-27T06:16:57.778Z,19.20
2022-07-27T06:19:36.465Z,19.30
2022-07-27T06:22:10.374Z,19.40
2022-07-27T06:24:42.910Z,19.50
2022-07-27T06:27:14.857Z,19.50
2022-07-27T06:29:46.826Z,19.60
2022-07-27T06:32:18.874Z,19.60
2022-07-27T06:34:51.188Z,19.60
2022-07-27T06:37:23.712Z,19.70
2022-07-27T06:39:56.826Z,19.80
2022-07-27T06:42:29.878Z,19.80
2022-07-27T06:45:02.057Z,19.90
2022-07-27T06:47:34.717Z,20.00
2022-07-27T06:50:08.252Z,20.00
2022-07-27T06:52:41.205Z,20.10
2022-07-27T06:55:13.996Z,20.10
2022-07-27T06:57:46.569Z,20.10
2022-07-27T07:00:19.101Z,20.10
2022-07-27T07:02:57.264Z,20.10
2022-07-27T07:05:45.218Z,20.10
2022-07-27T07:08:17.726Z,20.10
2022-07-27T07:10:50.733Z,20.20
2022-07-27T07:13:23.743Z,20.20
2022-07-27T07:15:56.629Z,20.30
2022-07-27T07:18:28.790Z,20.40
2022-07-27T07:21:02.477Z,20.40
2022-07-27T07:23:34.722Z,20.50
2022-07-27T07:26:06.976Z,20.60
2022-07-27T07:28:39.474Z,20.70
2022-07-27T07:31:13.047Z,20.70
2022-07-27T07:33:45.472Z,20.80
2022-07-27T07:36:17.650Z,20.80
2022-07-27T07:38:49.886Z,20.80
2022-07-27T07:41:25.162Z,20.90
2022-07-27T07:43:57.346Z,21.00
2022-07-27T07:46:29.574Z,21.10
2022-07-27T07:49:04.187Z,21.30
2022-07-27T07:51:36.832Z,21.50
2022-07-27T07:54:08.995Z,21.70
2022-07-27T07:56:41.450Z,21.90
2022-07-27T07:59:14.952Z,22.10
2022-07-27T08:01:47.444Z,22.20
2022-07-27T08:04:19.527Z,22.30
2022-07-27T08:06:52.345Z,22.40
2022-07-27T08:09:26.893Z,22.40
2022-07-27T08:11:59.420Z,22.50
2022-07-27T08:14:31.699Z,22.50
2022-07-27T08:17:04.292Z,22.60
2022-07-27T08:19:40.062Z,22.70
2022-07-27T08:22:13.235Z,22.80
2022-07-27T08:24:45.295Z,22.90
2022-07-27T08:27:17.646Z,23.00
2022-07-27T08:29:51.907Z,23.20
2022-07-27T08:32:25.221Z,23.30
2022-07-27T08:35:00.929Z,23.40
2022-07-27T08:37:33.079Z,23.50
2022-07-27T08:40:38.847Z,23.70
2022-07-27T08:43:00.474Z,23.70
2022-07-27T08:45:34.424Z,23.70
2022-07-27T08:48:07.604Z,23.70
2022-07-27T08:50:43.541Z,23.70
2022-07-27T08:53:19.955Z,23.80
2022-07-27T08:55:56.789Z,24.10
2022-07-27T08:58:29.774Z,24.30
2022-07-27T09:01:02.041Z,24.40
2022-07-27T09:03:34.205Z,24.50
2022-07-27T09:06:06.437Z,24.60
2022-07-27T09:08:41.853Z,24.60
2022-07-27T09:11:29.781Z,24.90
2022-07-27T09:14:05.118Z,25.10
2022-07-27T09:17:28.375Z,25.10
2022-07-27T09:20:01.782Z,25.20
2022-07-27T09:23:03.129Z,25.00
2022-07-27T09:26:02.221Z,24.90
2022-07-27T09:29:02.037Z,24.90
2022-07-27T09:31:51.610Z,24.80
2022-07-27T09:34:34.187Z,24.80
2022-07-27T09:37:08.757Z,25.00
2022-07-27T09:39:41.004Z,25.20
2022-07-27T09:42:52.472Z,25.40
2022-07-27T09:45:34.513Z,25.60
2022-07-27T09:48:09.318Z,25.80
2022-07-27T09:51:02.798Z,25.80
2022-07-27T09:53:43.343Z,25.90
2022-07-27T09:56:17.643Z,26.00
2022-07-27T09:59:04.103Z,26.10
2022-07-27T10:01:46.708Z,26.20
2022-07-27T10:04:21.486Z,26.40
2022-07-27T10:07:02.724Z,26.60
2022-07-27T10:09:37.443Z,26.70
2022-07-27T10:12:09.888Z,26.70
2022-07-27T10:14:42.084Z,26.70
2022-07-27T10:17:14.420Z,26.70
2022-07-27T10:19:50.695Z,26.70
2022-07-27T10:22:49.196Z,26.70
2022-07-27T10:25:26.900Z,26.50
2022-07-27T10:28:16.565Z,26.30
2022-07-27T10:30:54.267Z,26.10
2022-07-27T10:33:49.322Z,26.00
2022-07-27T10:36:24.066Z,26.10
2022-07-27T10:39:37.770Z,26.30
2022-07-27T10:42:30.943Z,26.50
2022-07-27T10:45:07.834Z,26.60
2022-07-27T10:47:52.813Z,26.50
2022-07-27T10:50:29.990Z,26.40
2022-07-27T10:53:06.556Z,26.30
2022-07-27T10:55:39.027Z,26.30
2022-07-27T10:58:15.478Z,26.10
2022-07-27T11:01:07.561Z,26.10
2022-07-27T11:03:42.716Z,26.10
2022-07-27T11:06:32.939Z,26.10
2022-07-27T11:12:16.545Z,26.10
2022-07-27T11:14:56.770Z,26.40
2022-07-27T11:20:31.311Z,26.70
2022-07-27T11:23:50.395Z,26.90
2022-07-27T11:26:12.524Z,27.00
2022-07-27T11:28:45.035Z,27.00
2022-07-27T11:31:38.323Z,27.00
2022-07-27T11:34:14.399Z,26.80
2022-07-27T11:36:50.587Z,26.50
2022-07-27T11:39:59.164Z,26.20
2022-07-27T11:42:21.680Z,26.10
2022-07-27T11:45:31.623Z,26.10
2022-07-27T11:48:10.033Z,26.20
2022-07-27T11:50:58.125Z,26.10
2022-07-27T11:53:30.566Z,26.20
2022-07-27T11:56:03.863Z,26.30
2022-07-27T11:59:01.520Z,26.30
2022-07-27T12:01:48.479Z,26.40
2022-07-27T12:04:32.481Z,26.40
2022-07-27T12:07:10.651Z,26.40
2022-07-27T12:09:51.899Z,26.50
2022-07-27T12:12:31.609Z,26.70
2022-07-27T12:15:44.214Z,26.90
2022-07-27T12:18:07.156Z,27.00
2022-07-27T12:20:48.616Z,27.00
2022-07-27T12:23:29.865Z,26.80
2022-07-27T12:26:25.325Z,26.70
2022-07-27T12:29:10.313Z,26.50
2022-07-27T12:31:49.948Z,26.40
2022-07-27T12:34:52.132Z,26.20
2022-07-27T12:37:30.701Z,26.10
2022-07-27T12:40:15.087Z,26.00
2022-07-27T12:43:01.276Z,26.00
2022-07-27T12:45:37.778Z,26.10
2022-07-27T12:48:17.752Z,26.10
2022-07-27T12:51:06.999Z,26.00
2022-07-27T12:53:40.418Z,26.30
2022-07-27T12:56:14.300Z,26.70
2022-07-27T12:59:04.517Z,27.00
2022-07-27T13:01:36.774Z,27.30
2022-07-27T13:04:09.072Z,27.60
2022-07-27T13:06:41.297Z,27.90
2022-07-27T13:09:13.775Z,28.00
2022-07-27T13:11:48.088Z,28.10
2022-07-27T13:14:20.773Z,28.30
2022-07-27T13:16:53.036Z,28.60
2022-07-27T13:19:25.296Z,28.80
2022-07-27T13:21:57.545Z,28.70
2022-07-27T13:24:29.902Z,28.60
2022-07-27T13:27:02.441Z,28.30
2022-07-27T13:29:34.685Z,27.90
2022-07-27T13:32:08.277Z,27.60
2022-07-27T13:34:40.549Z,27.20
2022-07-27T13:37:13.236Z,27.10
2022-07-27T13:39:47.458Z,27.00
2022-07-27T13:42:21.139Z,27.00
2022-07-27T13:45:11.024Z,26.90
2022-07-27T13:47:44.115Z,26.90
2022-07-27T13:50:19.693Z,27.00
2022-07-27T13:52:53.102Z,27.10
2022-07-27T13:55:28.271Z,27.20
2022-07-27T13:58:00.600Z,27.20
2022-07-27T14:00:33.007Z,27.10
2022-07-27T14:03:07.497Z,27.30
2022-07-27T14:05:49.646Z,27.60
2022-07-27T14:08:22.159Z,27.80
2022-07-27T14:10:54.737Z,28.10
2022-07-27T14:13:27.098Z,28.30
2022-07-27T14:16:04.219Z,28.50
2022-07-27T14:18:39.136Z,28.70
2022-07-27T14:21:11.857Z,28.60
2022-07-27T14:23:46.337Z,28.50
2022-07-27T14:26:19.128Z,28.20
2022-07-27T14:28:55.167Z,28.00
2022-07-27T14:31:30.768Z,27.80
2022-07-27T14:34:05.969Z,27.70
2022-07-27T14:36:38.676Z,27.60
2022-07-27T14:39:11.087Z,27.50
2022-07-27T14:41:44.534Z,27.40
2022-07-27T14:44:18.734Z,27.60
2022-07-27T14:46:51.181Z,27.70
2022-07-27T14:49:25.531Z,27.80
2022-07-27T14:51:58.539Z,27.90
2022-07-27T14:54:33.606Z,27.90
2022-07-27T14:57:12.200Z,28.00
2022-07-27T14:59:45.755Z,28.20
2022-07-27T15:02:17.992Z,28.30
2022-07-27T15:04:50.211Z,28.40
2022-07-27T15:07:22.545Z,28.50
2022-07-27T15:09:55.072Z,28.70
2022-07-27T15:12:27.483Z,28.70
2022-07-27T15:14:59.599Z,28.70
2022-07-27T15:17:31.802Z,28.70
2022-07-27T15:20:10.402Z,28.60
2022-07-27T15:22:42.873Z,28.40
2022-07-27T15:25:15.058Z,28.50
2022-07-27T15:27:47.778Z,28.60
2022-07-27T15:30:19.947Z,28.60
2022-07-27T15:32:52.442Z,28.40
2022-07-27T15:35:24.640Z,28.30
2022-07-27T15:37:56.885Z,28.00
2022-07-27T15:40:38.159Z,27.90
2022-07-27T15:43:15.922Z,27.90
2022-07-27T15:45:50.763Z,27.90
2022-07-27T15:48:23.469Z,27.80
2022-07-27T15:50:58.775Z,27.80
2022-07-27T15:53:32.275Z,27.90
2022-07-27T15:56:04.523Z,27.90
2022-07-27T15:58:36.643Z,28.10
2022-07-27T16:01:12.056Z,28.00
2022-07-27T16:03:44.886Z,27.90
2022-07-27T16:06:21.823Z,27.80
2022-07-27T16:08:53.884Z,27.70
2022-07-27T16:11:26.540Z,27.50
2022-07-27T16:13:58.620Z,27.50
2022-07-27T16:16:31.967Z,27.60
2022-07-27T16:19:12.278Z,27.60
2022-07-27T16:21:54.955Z,27.70
2022-07-27T16:24:28.410Z,27.60
2022-07-27T16:27:01.542Z,27.50
2022-07-27T16:29:43.742Z,27.60
2022-07-27T16:32:16.028Z,27.50
2022-07-27T16:34:48.233Z,27.30
2022-07-27T16:37:20.712Z,27.10
2022-07-27T16:39:52.917Z,27.00
2022-07-27T16:42:25.171Z,26.80
2022-07-27T16:44:57.251Z,26.50
2022-07-27T16:47:29.329Z,26.40
2022-07-27T16:50:01.563Z,26.40
2022-07-27T16:52:35.195Z,26.30
2022-07-27T16:55:07.632Z,26.40
2022-07-27T16:57:40.314Z,26.40
2022-07-27T17:00:13.097Z,26.30
2022-07-27T17:02:45.885Z,26.20
2022-07-27T17:05:18.237Z,26.20
2022-07-27T17:07:52.373Z,26.10
2022-07-27T17:10:27.105Z,26.00
2022-07-27T17:13:00.163Z,25.90
2022-07-27T17:15:33.587Z,25.90
2022-07-27T17:18:07.889Z,25.80
2022-07-27T17:20:41.444Z,25.70
2022-07-27T17:23:13.848Z,25.70
2022-07-27T17:25:48.072Z,25.70
2022-07-27T17:28:21.237Z,25.60
2022-07-27T17:30:55.803Z,25.50
2022-07-27T17:33:28.065Z,25.40
2022-07-27T17:36:00.483Z,25.30
2022-07-27T17:38:32.798Z,25.20
2022-07-27T17:41:08.286Z,25.10
2022-07-27T17:43:40.921Z,25.00
2022-07-27T17:46:13.396Z,25.00
2022-07-27T17:48:45.595Z,24.90
2022-07-27T17:51:17.855Z,24.80
2022-07-27T17:53:51.124Z,24.80
2022-07-27T17:56:23.566Z,24.70
2022-07-27T17:59:04.924Z,24.60
2022-07-27T18:01:49.190Z,24.60
2022-07-27T18:04:21.377Z,24.50
2022-07-27T18:06:54.339Z,24.40
2022-07-27T18:09:26.780Z,24.30
2022-07-27T18:11:59.192Z,24.30
2022-07-27T18:14:31.895Z,24.20
2022-07-27T18:17:06.165Z,24.10
2022-07-27T18:20:35.003Z,24.00
2022-07-27T18:23:09.361Z,23.90
2022-07-27T18:25:41.924Z,23.90
2022-07-27T18:28:16.396Z,23.80
2022-07-27T18:30:52.071Z,23.70
2022-07-27T18:33:26.265Z,23.70
2022-07-27T18:36:09.107Z,23.60
2022-07-27T18:38:45.076Z,23.50
2022-07-27T18:41:19.069Z,23.50
2022-07-27T18:43:51.637Z,23.40
2022-07-27T18:46:24.409Z,23.40
2022-07-27T18:48:56.935Z,23.30
2022-07-27T18:51:30.467Z,23.30
2022-07-27T18:54:03.902Z,23.20
2022-07-27T18:56:38.008Z,23.20
2022-07-27T18:59:11.399Z,23.10
2022-07-27T19:01:45.485Z,23.10
2022-07-27T19:04:17.681Z,23.10
2022-07-27T19:06:50.329Z,23.10
2022-07-27T19:09:23.803Z,23.10
2022-07-27T19:11:59.240Z,23.10
2022-07-27T19:14:32.056Z,23.00
2022-07-27T19:17:05.123Z,23.00
2022-07-27T19:19:37.426Z,22.90
2022-07-27T19:22:09.701Z,22.90
2022-07-27T19:24:42.243Z,22.90
2022-07-27T19:27:16.279Z,22.80
2022-07-27T19:29:48.486Z,22.80
2022-07-27T19:32:20.677Z,22.70
2022-07-27T19:34:53.566Z,22.70
2022-07-27T19:37:29.654Z,22.70
2022-07-27T19:40:20.180Z,22.70
2022-07-27T19:42:55.155Z,22.70
2022-07-27T19:45:27.315Z,22.60
2022-07-27T19:48:01.623Z,22.50
2022-07-27T19:50:36.291Z,22.50
2022-07-27T19:53:09.081Z,22.50
2022-07-27T19:55:43.922Z,22.40
2022-07-27T19:58:17.275Z,22.40
2022-07-27T20:00:52.775Z,22.30
2022-07-27T20:03:28.083Z,22.30
2022-07-27T20:06:02.299Z,22.20
2022-07-27T20:08:34.890Z,22.20
2022-07-27T20:11:07.357Z,22.00
2022-07-27T20:13:39.633Z,22.00
2022-07-27T20:16:12.843Z,22.00
2022-07-27T20:18:46.714Z,21.90
2022-07-27T20:21:26.410Z,21.80
2022-07-27T20:24:02.008Z,21.70
2022-07-27T20:26:35.176Z,21.60
2022-07-27T20:29:08.219Z,21.50
2022-07-27T20:31:42.050Z,21.50
2022-07-27T20:34:14.398Z,21.40
2022-07-27T20:36:46.761Z,21.40
2022-07-27T20:39:20.306Z,21.30
2022-07-27T20:41:54.149Z,21.30
2022-07-27T20:44:27.626Z,21.20
2022-07-27T20:47:06.546Z,21.20
2022-07-27T20:49:39.604Z,21.10
2022-07-27T20:52:11.703Z,21.10
2022-07-27T20:54:43.864Z,21.10
2022-07-27T20:57:16.190Z,21.00
2022-07-27T20:59:48.415Z,21.00
2022-07-27T21:02:20.546Z,20.90
2022-07-27T21:04:54.865Z,20.90
2022-07-27T21:07:28.125Z,20.90
2022-07-27T21:10:00.576Z,20.80
2022-07-27T21:12:33.756Z,20.80
2022-07-27T21:15:09.917Z,20.80
2022-07-27T21:17:45.866Z,20.80
2022-07-27T21:20:18.035Z,20.80
2022-07-27T21:23:10.121Z,20.80
2022-07-27T21:26:02.092Z,20.80
2022-07-27T21:28:35.696Z,20.70
2022-07-27T21:31:08.243Z,20.70
2022-07-27T21:33:40.486Z,20.60
2022-07-27T21:36:12.749Z,20.60
2022-07-27T21:38:44.721Z,20.60
2022-07-27T21:41:19.843Z,20.50
2022-07-27T21:43:52.236Z,20.50
2022-07-27T21:46:24.898Z,20.40
2022-07-27T21:48:57.159Z,20.40
2022-07-27T21:51:29.472Z,20.40
2022-07-27T21:54:01.785Z,20.30
2022-07-27T21:56:41.082Z,20.30
2022-07-27T21:59:18.931Z,20.20
2022-07-27T22:01:51.044Z,20.20
2022-07-27T22:04:23.299Z,20.20
2022-07-27T22:06:55.395Z,20.10
2022-07-27T22:09:28.649Z,20.10
2022-07-27T22:12:01.079Z,20.00
2022-07-27T22:14:33.137Z,20.00
2022-07-27T22:17:05.277Z,19.90
2022-07-27T22:19:37.322Z,19.90
2022-07-27T22:22:09.426Z,19.90
2022-07-27T22:25:01.540Z,19.80
2022-07-27T22:27:34.226Z,19.80
2022-07-27T22:30:07.403Z,19.80
2022-07-27T22:32:40.120Z,19.70
2022-07-27T22:35:12.240Z,19.70
2022-07-27T22:37:44.488Z,19.60
2022-07-27T22:40:16.588Z,19.60
2022-07-27T22:43:13.613Z,19.60
2022-07-27T22:45:46.415Z,19.50
2022-07-27T22:48:18.875Z,19.40
2022-07-27T22:50:51.054Z,19.40
2022-07-27T22:53:23.172Z,19.30
2022-07-27T22:55:56.329Z,19.30
2022-07-27T22:58:28.445Z,19.20
2022-07-27T23:01:00.504Z,19.10
2022-07-27T23:03:33.940Z,19.10
2022-07-27T23:06:06.308Z,19.00
2022-07-27T23:08:38.433Z,19.00
2022-07-27T23:11:15.844Z,18.90
2022-07-27T23:13:48.276Z,18.80
2022-07-27T23:16:20.371Z,18.70
2022-07-27T23:18:52.485Z,18.70
2022-07-27T23:21:25.524Z,18.60
2022-07-27T23:23:57.493Z,18.60
2022-07-27T23:26:31.023Z,18.60
2022-07-27T23:29:03.840Z,18.60
2022-07-27T23:31:36.139Z,18.60
2022-07-27T23:34:08.298Z,18.60
2022-07-27T23:36:43.713Z,18.60
2022-07-27T23:39:16.615Z,18.60
2022-07-27T23:41:50.129Z,18.70
2022-07-27T23:44:22.605Z,18.60
2022-07-27T23:46:54.768Z,18.70
2022-07-27T23:49:26.918Z,18.70
2022-07-27T23:51:59.495Z,18.70
2022-07-27T23:54:33.257Z,18.70
2022-07-27T23:57:08.322Z,18.70
2022-07-27T23:59:40.446Z,18.70
